createdAt,value
2022-09-13T00:02:18.351Z,4.03
2022-09-13T00:04:46.190Z,3.73
2022-09-13T00:07:14.012Z,4.10
2022-09-13T00:09:41.946Z,4.63
2022-09-13T00:12:09.774Z,4.10
2022-09-13T00:14:37.593Z,4.50
2022-09-13T00:17:06.779Z,3.90
2022-09-13T00:19:35.118Z,3.83
2022-09-13T00:22:02.962Z,4.30
2022-09-13T00:24:30.846Z,4.63
2022-09-13T00:26:58.700Z,3.90
2022-09-13T00:29:27.385Z,4.00
2022-09-13T00:31:55.275Z,4.03
2022-09-13T00:34:24.566Z,4.77
2022-09-13T00:36:52.405Z,4.03
2022-09-13T00:39:20.407Z,4.43
2022-09-13T00:41:48.308Z,4.40
2022-09-13T00:44:49.783Z,4.33
2022-09-13T00:47:21.951Z,4.50
2022-09-13T00:49:56.140Z,4.40
2022-09-13T00:52:26.954Z,3.87
2022-09-13T00:54:59.718Z,4.60
2022-09-13T00:57:28.590Z,4.33
2022-09-13T01:00:04.160Z,4.00
2022-09-13T01:02:32.637Z,4.30
2022-09-13T01:05:02.128Z,4.20
2022-09-13T01:07:30.016Z,4.80
2022-09-13T01:09:58.250Z,4.37
2022-09-13T01:12:34.411Z,4.97
2022-09-13T01:15:05.209Z,4.80
2022-09-13T01:17:34.936Z,4.40
2022-09-13T01:20:06.827Z,4.37
2022-09-13T01:23:07.765Z,4.33
2022-09-13T01:26:12.515Z,4.50
2022-09-13T01:29:34.728Z,4.77
2022-09-13T01:32:14.546Z,4.50
2022-09-13T01:34:52.926Z,4.73
2022-09-13T01:37:40.388Z,4.37
2022-09-13T01:40:20.110Z,4.57
2022-09-13T01:43:08.143Z,4.43
2022-09-13T01:45:44.710Z,4.57
2022-09-13T01:48:20.993Z,4.90
2022-09-13T01:51:00.291Z,4.63
2022-09-13T01:53:35.273Z,4.70
2022-09-13T01:56:09.001Z,4.50
2022-09-13T01:58:44.642Z,4.80
2022-09-13T02:01:18.347Z,5.00
2022-09-13T02:03:55.596Z,5.13
2022-09-13T02:06:26.227Z,5.60
2022-09-13T02:08:57.980Z,5.53
2022-09-13T02:11:26.056Z,5.37
2022-09-13T02:14:01.620Z,5.57
2022-09-13T02:16:33.145Z,5.10
2022-09-13T02:19:08.046Z,5.40
2022-09-13T02:21:40.127Z,5.17
2022-09-13T02:24:10.145Z,5.00
2022-09-13T02:26:41.551Z,4.87
2022-09-13T02:29:14.259Z,4.63
2022-09-13T02:31:48.143Z,4.73
2022-09-13T02:34:21.171Z,4.87
2022-09-13T02:36:51.984Z,4.80
2022-09-13T02:39:24.747Z,5.00
2022-09-13T02:41:57.707Z,4.70
2022-09-13T02:44:31.126Z,4.73
2022-09-13T02:47:10.414Z,4.97
2022-09-13T02:49:51.561Z,4.53
2022-09-13T02:52:29.023Z,4.40
2022-09-13T02:55:02.350Z,4.63
2022-09-13T02:57:33.451Z,4.40
2022-09-13T03:00:01.754Z,4.77
2022-09-13T03:02:33.700Z,4.40
2022-09-13T03:05:04.197Z,4.20
2022-09-13T03:07:32.058Z,4.70
2022-09-13T03:10:06.206Z,4.33
2022-09-13T03:13:03.480Z,4.27
2022-09-13T03:15:46.426Z,4.30
2022-09-13T03:18:31.945Z,4.40
2022-09-13T03:21:09.632Z,3.80
2022-09-13T03:23:54.500Z,4.30
2022-09-13T03:26:33.903Z,3.97
2022-09-13T03:29:12.078Z,5.00
2022-09-13T03:31:50.443Z,3.80
2022-09-13T03:34:30.666Z,3.63
2022-09-13T03:37:06.679Z,4.50
2022-09-13T03:39:43.076Z,3.67
2022-09-13T03:42:19.583Z,4.07
2022-09-13T03:44:49.533Z,3.50
2022-09-13T03:47:19.054Z,3.77
2022-09-13T03:49:47.441Z,3.53
2022-09-13T03:52:16.711Z,3.90
2022-09-13T03:54:44.611Z,3.87
2022-09-13T03:57:15.188Z,3.93
2022-09-13T03:59:47.811Z,3.90
2022-09-13T04:02:16.533Z,4.20
2022-09-13T04:04:45.467Z,3.80
2022-09-13T04:07:15.567Z,4.30
2022-09-13T04:09:45.831Z,3.73
2022-09-13T04:12:15.115Z,4.00
2022-09-13T04:14:43.859Z,3.97
2022-09-13T04:17:12.911Z,4.10
2022-09-13T04:19:41.466Z,3.97
2022-09-13T04:22:09.639Z,3.70
2022-09-13T04:24:37.687Z,4.37
2022-09-13T04:27:07.404Z,4.10
2022-09-13T04:29:35.331Z,4.37
2022-09-13T04:32:03.620Z,4.10
2022-09-13T04:34:31.455Z,3.97
2022-09-13T04:36:59.310Z,4.13
2022-09-13T04:39:27.202Z,4.07
2022-09-13T04:41:55.187Z,4.07
2022-09-13T04:44:25.464Z,4.17
2022-09-13T04:46:53.323Z,3.67
2022-09-13T04:49:21.944Z,4.00
2022-09-13T04:51:51.122Z,3.57
2022-09-13T04:54:19.069Z,4.33
2022-09-13T04:56:47.119Z,3.80
2022-09-13T04:59:15.419Z,3.87
2022-09-13T05:01:44.806Z,3.73
2022-09-13T05:04:13.010Z,4.30
2022-09-13T05:06:40.801Z,4.30
2022-09-13T05:09:08.656Z,4.30
2022-09-13T05:11:36.452Z,4.23
2022-09-13T05:14:05.672Z,4.10
2022-09-13T05:16:34.531Z,4.50
2022-09-13T05:19:04.204Z,4.30
2022-09-13T05:21:32.191Z,4.63
2022-09-13T05:24:00.611Z,4.27
2022-09-13T05:26:31.366Z,4.40
2022-09-13T05:28:59.707Z,4.23
2022-09-13T05:31:30.505Z,4.10
2022-09-13T05:34:01.247Z,4.33
2022-09-13T05:36:30.693Z,4.73
2022-09-13T05:39:26.014Z,4.90
2022-09-13T05:41:46.970Z,4.60
2022-09-13T05:44:15.126Z,5.00
2022-09-13T05:46:43.359Z,4.57
2022-09-13T05:49:16.173Z,4.90
2022-09-13T05:51:48.114Z,4.70
2022-09-13T05:54:16.696Z,4.60
2022-09-13T05:56:44.540Z,4.70
2022-09-13T05:59:14.810Z,4.43
2022-09-13T06:01:43.094Z,4.63
2022-09-13T06:04:15.536Z,4.20
2022-09-13T06:06:44.916Z,4.80
2022-09-13T06:09:13.988Z,4.17
2022-09-13T06:11:41.912Z,4.27
2022-09-13T06:14:10.343Z,4.40
2022-09-13T06:16:38.297Z,4.23
2022-09-13T06:19:06.714Z,4.13
2022-09-13T06:21:34.875Z,4.03
2022-09-13T06:24:04.820Z,3.87
2022-09-13T06:26:32.812Z,4.40
2022-09-13T06:29:00.663Z,4.20
2022-09-13T06:31:29.453Z,4.20
2022-09-13T06:33:59.067Z,3.67
2022-09-13T06:36:27.098Z,3.87
2022-09-13T06:38:55.527Z,4.10
2022-09-13T06:41:27.122Z,3.73
2022-09-13T06:43:57.368Z,4.00
2022-09-13T06:46:26.270Z,4.00
2022-09-13T06:48:54.872Z,4.03
2022-09-13T06:51:24.384Z,4.20
2022-09-13T06:53:56.546Z,3.93
2022-09-13T06:56:26.885Z,3.70
2022-09-13T06:58:57.695Z,3.73
2022-09-13T07:01:27.490Z,4.37
2022-09-13T07:03:58.583Z,3.87
2022-09-13T07:06:28.222Z,4.10
2022-09-13T07:08:57.815Z,4.00
2022-09-13T07:11:34.957Z,3.73
2022-09-13T07:14:03.392Z,4.47
2022-09-13T07:16:33.003Z,3.77
2022-09-13T07:19:02.235Z,3.97
2022-09-13T07:21:30.826Z,4.63
2022-09-13T07:23:58.951Z,4.37
2022-09-13T07:26:28.998Z,4.70
2022-09-13T07:28:58.901Z,4.20
2022-09-13T07:31:29.346Z,4.67
2022-09-13T07:33:58.521Z,4.13
2022-09-13T07:36:27.580Z,4.17
2022-09-13T07:38:55.533Z,3.87
2022-09-13T07:41:25.247Z,3.87
2022-09-13T07:43:55.258Z,4.00
2022-09-13T07:46:24.752Z,3.47
2022-09-13T07:48:54.798Z,3.97
2022-09-13T07:51:24.472Z,3.77
2022-09-13T07:53:57.265Z,3.50
2022-09-13T07:56:28.546Z,3.83
2022-09-13T07:59:00.758Z,4.20
2022-09-13T08:01:30.715Z,3.63
2022-09-13T08:04:00.443Z,3.80
2022-09-13T08:06:29.907Z,3.53
2022-09-13T08:08:58.744Z,3.40
2022-09-13T08:11:29.608Z,3.23
2022-09-13T08:13:58.837Z,3.90
2022-09-13T08:16:28.590Z,3.40
2022-09-13T08:18:58.230Z,3.60
2022-09-13T08:21:26.635Z,3.20
2022-09-13T08:23:59.642Z,3.20
2022-09-13T08:26:28.050Z,3.07
2022-09-13T08:29:01.781Z,2.73
2022-09-13T08:31:30.546Z,3.50
2022-09-13T08:33:58.760Z,2.90
2022-09-13T08:36:27.617Z,2.90
2022-09-13T08:38:57.663Z,2.90
2022-09-13T08:41:55.569Z,3.20
2022-09-13T08:44:29.504Z,2.90
2022-09-13T08:47:05.256Z,3.40
2022-09-13T08:49:36.505Z,3.47
2022-09-13T08:52:17.902Z,2.97
2022-09-13T08:54:45.849Z,2.77
2022-09-13T08:57:21.343Z,2.73
2022-09-13T08:59:59.829Z,2.90
2022-09-13T09:02:51.798Z,3.13
2022-09-13T09:05:22.452Z,2.53
2022-09-13T09:07:53.659Z,3.00
2022-09-13T09:10:25.230Z,2.83
2022-09-13T09:12:57.993Z,2.50
2022-09-13T09:15:32.834Z,3.00
2022-09-13T09:18:04.581Z,2.60
2022-09-13T09:20:37.566Z,2.83
2022-09-13T09:23:09.331Z,2.93
2022-09-13T09:25:37.190Z,2.53
2022-09-13T09:28:13.253Z,2.80
2022-09-13T09:30:58.655Z,2.57
2022-09-13T09:33:39.896Z,2.83
2022-09-13T09:36:17.612Z,2.87
2022-09-13T09:38:45.575Z,2.60
2022-09-13T09:41:27.041Z,2.70
2022-09-13T09:44:01.127Z,2.40
2022-09-13T09:46:34.503Z,2.63
2022-09-13T09:49:30.982Z,2.33
2022-09-13T09:52:00.818Z,2.70
2022-09-13T09:54:31.406Z,2.57
2022-09-13T09:56:59.877Z,3.40
2022-09-13T09:59:31.150Z,2.90
2022-09-13T10:02:01.910Z,2.30
2022-09-13T10:04:30.636Z,2.63
2022-09-13T10:07:23.707Z,2.50
2022-09-13T10:10:03.201Z,2.70
2022-09-13T10:12:34.212Z,2.22
2022-09-13T10:15:08.466Z,1.90
2022-09-13T10:17:37.737Z,2.35
2022-09-13T10:20:23.336Z,2.70
2022-09-13T10:23:21.649Z,2.63
2022-09-13T10:26:08.420Z,2.20
2022-09-13T10:28:46.945Z,2.33
2022-09-13T10:31:17.841Z,2.30
2022-09-13T10:33:58.575Z,2.50
2022-09-13T10:36:51.058Z,1.80
2022-09-13T10:39:21.217Z,2.08
2022-09-13T10:41:53.423Z,2.35
2022-09-13T10:44:29.563Z,2.25
2022-09-13T10:46:58.858Z,2.17
2022-09-13T10:49:49.094Z,2.08
2022-09-13T10:52:35.082Z,1.95
2022-09-13T10:55:35.190Z,2.10
2022-09-13T10:58:30.282Z,1.75
2022-09-13T11:01:14.186Z,1.55
2022-09-13T11:03:59.578Z,1.70
2022-09-13T11:06:35.692Z,2.03
2022-09-13T11:09:12.592Z,1.80
2022-09-13T11:11:46.866Z,2.03
2022-09-13T11:14:28.565Z,2.07
2022-09-13T11:17:06.264Z,1.67
2022-09-13T11:20:04.297Z,1.90
2022-09-13T11:23:02.237Z,2.00
2022-09-13T11:25:40.704Z,1.83
2022-09-13T11:28:19.153Z,1.90
2022-09-13T11:31:01.258Z,1.60
2022-09-13T11:33:39.113Z,2.00
2022-09-13T11:36:34.883Z,1.87
2022-09-13T11:39:14.432Z,1.60
2022-09-13T11:41:51.214Z,1.70
2022-09-13T11:44:43.198Z,1.90
2022-09-13T11:47:19.657Z,2.20
2022-09-13T11:50:03.988Z,1.97
2022-09-13T11:52:43.541Z,2.10
2022-09-13T11:55:18.685Z,2.10
2022-09-13T11:57:50.723Z,2.20
2022-09-13T12:00:23.847Z,1.70
2022-09-13T12:03:04.587Z,1.90
2022-09-13T12:05:38.355Z,1.80
2022-09-13T12:08:11.926Z,1.77
2022-09-13T12:10:47.340Z,1.50
2022-09-13T12:13:21.519Z,1.43
2022-09-13T12:15:53.446Z,1.40
2022-09-13T12:18:26.144Z,1.70
2022-09-13T12:20:56.448Z,1.50
2022-09-13T12:23:30.935Z,1.50
2022-09-13T12:26:04.831Z,1.60
2022-09-13T12:28:37.001Z,1.60
2022-09-13T12:31:10.680Z,1.50
2022-09-13T12:33:41.637Z,1.60
2022-09-13T12:36:33.069Z,1.53
2022-09-13T12:39:34.007Z,1.47
2022-09-13T12:42:24.378Z,1.50
2022-09-13T12:45:12.180Z,1.60
2022-09-13T12:47:55.383Z,1.50
2022-09-13T12:51:02.957Z,1.20
2022-09-13T12:53:59.155Z,1.87
2022-09-13T12:56:54.898Z,1.60
2022-09-13T12:59:55.524Z,2.03
2022-09-13T13:02:34.810Z,1.90
2022-09-13T13:05:06.125Z,1.90
2022-09-13T13:07:41.125Z,1.80
2022-09-13T13:10:27.067Z,1.90
2022-09-13T13:12:55.260Z,1.27
2022-09-13T13:16:07.257Z,1.47
2022-09-13T13:18:48.405Z,1.50
2022-09-13T13:21:39.007Z,1.90
2022-09-13T13:24:47.912Z,1.70
2022-09-13T13:27:36.354Z,1.87
2022-09-13T13:30:41.087Z,1.87
2022-09-13T13:33:20.410Z,1.60
2022-09-13T13:35:48.972Z,1.73
2022-09-13T13:38:52.354Z,1.70
2022-09-13T13:41:48.110Z,1.87
2022-09-13T13:45:04.796Z,1.43
2022-09-13T13:48:05.045Z,1.50
2022-09-13T13:50:37.713Z,1.60
2022-09-13T13:53:23.109Z,1.87
2022-09-13T13:56:09.432Z,1.70
2022-09-13T13:58:47.124Z,1.80
2022-09-13T14:01:20.148Z,1.67
2022-09-13T14:04:33.757Z,1.93
2022-09-13T14:07:19.523Z,1.83
2022-09-13T14:09:56.926Z,1.60
2022-09-13T14:12:40.356Z,1.47
2022-09-13T14:15:27.025Z,1.90
2022-09-13T14:18:24.584Z,2.00
2022-09-13T14:21:00.031Z,1.43
2022-09-13T14:23:30.193Z,1.97
2022-09-13T14:26:00.158Z,1.97
2022-09-13T14:28:28.494Z,1.77
2022-09-13T14:30:58.537Z,1.77
2022-09-13T14:33:32.040Z,1.83
2022-09-13T14:36:03.726Z,1.90
2022-09-13T14:38:35.495Z,1.53
2022-09-13T14:41:14.214Z,1.63
2022-09-13T14:43:43.468Z,1.80
2022-09-13T14:46:16.597Z,1.90
2022-09-13T14:48:51.356Z,1.43
2022-09-13T14:51:22.415Z,1.47
2022-09-13T14:53:54.031Z,1.60
2022-09-13T14:56:32.753Z,1.43
2022-09-13T14:59:03.760Z,1.63
2022-09-13T15:01:34.564Z,1.80
2022-09-13T15:04:05.039Z,2.00
2022-09-13T15:06:38.098Z,1.70
2022-09-13T15:09:26.355Z,1.60
2022-09-13T15:11:59.587Z,1.93
2022-09-13T15:14:31.073Z,1.80
2022-09-13T15:17:02.002Z,1.70
2022-09-13T15:19:38.982Z,1.40
2022-09-13T15:22:19.949Z,1.80
2022-09-13T15:24:52.034Z,1.50
2022-09-13T15:27:28.501Z,2.50
2022-09-13T15:29:59.806Z,1.90
2022-09-13T15:32:33.236Z,1.80
2022-09-13T15:35:02.524Z,1.87
2022-09-13T15:37:33.991Z,1.90
2022-09-13T15:40:21.920Z,1.47
2022-09-13T15:42:51.279Z,2.07
2022-09-13T15:45:20.694Z,1.60
2022-09-13T15:47:49.248Z,2.10
2022-09-13T15:50:26.765Z,1.60
2022-09-13T15:52:55.281Z,1.57
2022-09-13T15:55:25.387Z,1.70
2022-09-13T15:57:53.489Z,1.80
2022-09-13T16:00:26.776Z,1.70
2022-09-13T16:02:55.299Z,2.03
2022-09-13T16:05:23.251Z,1.67
2022-09-13T16:07:51.390Z,1.90
2022-09-13T16:10:22.209Z,1.50
2022-09-13T16:12:51.533Z,1.97
2022-09-13T16:15:19.389Z,2.20
2022-09-13T16:17:47.667Z,1.73
2022-09-13T16:20:16.991Z,1.70
2022-09-13T16:22:44.979Z,1.87
2022-09-13T16:25:14.186Z,1.63
2022-09-13T16:27:42.720Z,1.87
2022-09-13T16:30:14.837Z,1.87
2022-09-13T16:32:43.003Z,1.73
2022-09-13T16:35:11.509Z,2.10
2022-09-13T16:37:39.904Z,2.00
2022-09-13T16:40:09.550Z,1.93
2022-09-13T16:42:37.580Z,1.93
2022-09-13T16:45:06.300Z,1.80
2022-09-13T16:47:35.731Z,2.03
2022-09-13T16:50:04.224Z,2.43
2022-09-13T16:52:32.081Z,3.33
2022-09-13T16:55:00.031Z,2.60
2022-09-13T16:57:28.162Z,2.30
2022-09-13T16:59:58.371Z,2.23
2022-09-13T17:02:26.902Z,2.50
2022-09-13T17:04:56.653Z,2.63
2022-09-13T17:07:24.567Z,2.40
2022-09-13T17:09:52.513Z,2.40
2022-09-13T17:12:20.786Z,2.70
2022-09-13T17:14:50.545Z,2.30
2022-09-13T17:17:18.785Z,3.00
2022-09-13T17:19:47.485Z,2.30
2022-09-13T17:22:16.903Z,2.40
2022-09-13T17:24:45.212Z,2.53
2022-09-13T17:27:13.099Z,2.50
2022-09-13T17:29:40.920Z,2.60
2022-09-13T17:32:09.501Z,2.43
2022-09-13T17:34:37.332Z,2.10
2022-09-13T17:37:06.613Z,2.10
2022-09-13T17:39:35.884Z,2.40
2022-09-13T17:42:03.839Z,2.17
2022-09-13T17:44:31.740Z,2.60
2022-09-13T17:46:59.718Z,2.23
2022-09-13T17:49:27.558Z,2.43
2022-09-13T17:51:55.700Z,2.63
2022-09-13T17:54:23.892Z,2.60
2022-09-13T17:56:53.249Z,2.40
2022-09-13T17:59:23.366Z,2.40
2022-09-13T18:01:52.919Z,2.27
2022-09-13T18:04:22.431Z,3.17
2022-09-13T18:06:51.971Z,2.57
2022-09-13T18:09:20.067Z,2.67
2022-09-13T18:11:48.144Z,2.87
2022-09-13T18:14:19.113Z,2.77
2022-09-13T18:16:49.259Z,2.60
2022-09-13T18:19:17.584Z,3.03
2022-09-13T18:21:47.596Z,2.70
2022-09-13T18:24:15.615Z,2.90
2022-09-13T18:26:43.548Z,2.90
2022-09-13T18:29:13.455Z,3.10
2022-09-13T18:31:43.503Z,3.50
2022-09-13T18:34:13.402Z,3.20
2022-09-13T18:36:41.962Z,3.17
2022-09-13T18:39:16.600Z,3.40
2022-09-13T18:41:46.981Z,3.30
2022-09-13T18:44:16.075Z,3.37
2022-09-13T18:46:46.600Z,3.57
2022-09-13T18:49:15.052Z,3.37
2022-09-13T18:51:44.552Z,3.27
2022-09-13T18:54:14.552Z,3.80
2022-09-13T18:56:42.482Z,2.80
2022-09-13T18:59:11.082Z,3.43
2022-09-13T19:01:41.081Z,3.20
2022-09-13T19:04:13.930Z,3.57
2022-09-13T19:06:43.764Z,3.40
2022-09-13T19:09:11.976Z,4.67
2022-09-13T19:11:46.778Z,4.40
2022-09-13T19:14:16.062Z,4.27
2022-09-13T19:16:44.180Z,3.43
2022-09-13T19:19:13.520Z,3.47
2022-09-13T19:21:41.772Z,3.20
2022-09-13T19:24:16.199Z,3.43
2022-09-13T19:26:46.533Z,4.43
2022-09-13T19:29:16.712Z,3.90
2022-09-13T19:31:47.560Z,3.47
2022-09-13T19:34:17.791Z,3.53
2022-09-13T19:36:46.091Z,3.57
2022-09-13T19:39:14.306Z,3.73
2022-09-13T19:41:42.826Z,3.83
2022-09-13T19:44:13.737Z,3.87
2022-09-13T19:46:42.940Z,4.07
2022-09-13T19:49:14.756Z,3.97
2022-09-13T19:51:48.787Z,4.27
2022-09-13T19:54:19.331Z,4.03
2022-09-13T19:56:47.415Z,3.57
2022-09-13T19:59:19.667Z,3.27
2022-09-13T20:01:48.550Z,3.33
2022-09-13T20:04:18.175Z,3.17
2022-09-13T20:06:51.027Z,3.33
2022-09-13T20:09:20.839Z,3.00
2022-09-13T20:11:49.250Z,3.30
2022-09-13T20:14:19.329Z,3.73
2022-09-13T20:16:47.768Z,3.67
2022-09-13T20:19:39.329Z,3.63
2022-09-13T20:22:08.820Z,3.77
2022-09-13T20:24:36.996Z,4.13
2022-09-13T20:27:05.365Z,4.57
2022-09-13T20:29:33.447Z,5.30
2022-09-13T20:32:02.361Z,4.00
2022-09-13T20:34:31.122Z,4.77
2022-09-13T20:36:59.137Z,5.20
2022-09-13T20:39:28.632Z,5.20
2022-09-13T20:41:56.545Z,4.40
2022-09-13T20:44:24.392Z,4.60
2022-09-13T20:46:52.301Z,4.40
2022-09-13T20:49:20.609Z,4.53
2022-09-13T20:51:49.953Z,5.00
2022-09-13T20:54:17.902Z,4.17
2022-09-13T20:56:47.465Z,4.13
2022-09-13T20:59:15.802Z,3.60
2022-09-13T21:01:43.824Z,4.23
2022-09-13T21:04:11.806Z,3.50
2022-09-13T21:07:01.510Z,4.50
2022-09-13T21:09:29.171Z,3.70
2022-09-13T21:11:58.400Z,3.90
2022-09-13T21:14:26.226Z,3.53
2022-09-13T21:16:54.291Z,3.30
2022-09-13T21:19:22.338Z,3.10
2022-09-13T21:21:50.211Z,3.97
2022-09-13T21:24:18.283Z,3.07
2022-09-13T21:26:46.201Z,3.50
2022-09-13T21:29:15.485Z,3.30
2022-09-13T21:31:43.363Z,3.17
2022-09-13T21:34:15.103Z,3.30
2022-09-13T21:36:43.757Z,3.40
2022-09-13T21:39:12.478Z,2.97
2022-09-13T21:41:40.921Z,2.90
2022-09-13T21:44:09.165Z,3.17
2022-09-13T21:46:39.530Z,3.03
2022-09-13T21:49:09.079Z,2.90
2022-09-13T21:51:38.732Z,3.07
2022-09-13T21:54:08.656Z,3.10
2022-09-13T21:56:38.202Z,3.80
2022-09-13T21:59:08.620Z,4.20
2022-09-13T22:01:39.942Z,3.90
2022-09-13T22:04:09.087Z,3.90
2022-09-13T22:06:38.295Z,3.93
2022-09-13T22:09:08.641Z,4.10
2022-09-13T22:11:39.693Z,4.30
2022-09-13T22:14:09.391Z,3.97
2022-09-13T22:16:40.430Z,4.83
2022-09-13T22:19:11.291Z,5.27
2022-09-13T22:21:41.104Z,4.77
2022-09-13T22:24:11.044Z,4.80
2022-09-13T22:26:40.603Z,4.50
2022-09-13T22:29:09.654Z,4.43
2022-09-13T22:31:40.590Z,4.73
2022-09-13T22:34:11.580Z,3.87
2022-09-13T22:36:39.771Z,4.00
2022-09-13T22:39:08.167Z,4.37
2022-09-13T22:41:36.221Z,4.07
2022-09-13T22:44:04.715Z,4.20
2022-09-13T22:46:34.175Z,4.63
2022-09-13T22:49:04.359Z,4.40
2022-09-13T22:51:32.471Z,4.57
2022-09-13T22:54:04.992Z,4.40
2022-09-13T22:56:35.651Z,4.50
2022-09-13T22:59:07.357Z,4.70
2022-09-13T23:01:36.489Z,4.23
2022-09-13T23:04:06.661Z,5.13
2022-09-13T23:06:35.385Z,4.63
2022-09-13T23:09:05.782Z,5.10
2022-09-13T23:11:37.515Z,4.80
2022-09-13T23:14:09.748Z,4.83
2022-09-13T23:16:42.817Z,4.70
2022-09-13T23:19:13.635Z,5.10
2022-09-13T23:21:42.429Z,5.07
2022-09-13T23:24:13.229Z,4.90
2022-09-13T23:26:42.581Z,5.27
2022-09-13T23:29:14.078Z,5.10
2022-09-13T23:31:42.504Z,5.37
2022-09-13T23:34:12.652Z,5.60
2022-09-13T23:36:42.685Z,5.27
2022-09-13T23:39:16.309Z,5.60
2022-09-13T23:41:44.880Z,5.10
2022-09-13T23:44:12.758Z,5.07
2022-09-13T23:46:40.641Z,6.00
2022-09-13T23:49:08.519Z,5.70
2022-09-13T23:51:38.049Z,5.63
2022-09-13T23:54:06.333Z,5.77
2022-09-13T23:56:34.815Z,7.50
2022-09-13T23:59:04.517Z,8.83
